Mandoudi — SV3198 — position and weather

sailwx.info

Track history (hours):
 
Tides and Currents Weather Stations Pressure Air Temp Water Temp Dewpoint Dewpoint Depression Visibility Wind Speed Wind Dir Waves Ship Positions

Mandoudi

Last reported at 2015-Jan-28 23:33 UTC. Time now 2015-Jan-29 00:15 UTC.
Position N 37°58' E 023°37'.

Length 60 m; draft 4.6 m.

Type: Ship (hazmat cat A). MMSI: 237470200.

Date/timePositionNaut miles runAvg speedWind from/ knotsBaromVisibWave heightAir tempDewpointWater temp
2015-Jan-28 23:33N 37°58' E 023°37'0 0.0
2015-Jan-28 22:34N 37°58' E 023°37'0 0.0
2015-Jan-28 21:34N 37°58' E 023°37'0 0.0
2015-Jan-28 20:33N 37°58' E 023°37'0 0.0
2015-Jan-28 19:34N 37°58' E 023°37'0 0.0
2015-Jan-28 18:34N 37°58' E 023°37'1 0.8
2015-Jan-28 17:34N 37°57' E 023°36'2 1.8
2015-Jan-28 16:33N 37°57' E 023°38'0 0.0
2015-Jan-28 15:34N 37°57' E 023°38'0 0.0
2015-Jan-28 14:34N 37°57' E 023°38'0 0.0
2015-Jan-28 13:34N 37°57' E 023°38'1 1.4
2015-Jan-28 12:33N 37°58' E 023°37'0 0.0
2015-Jan-28 11:34N 37°58' E 023°37'0 0.0
2015-Jan-28 10:33N 37°58' E 023°37'0 0.0
2015-Jan-28 09:33N 37°58' E 023°37'0 0.0
2015-Jan-28 08:34N 37°58' E 023°37'0 0.0
2015-Jan-28 07:34N 37°58' E 023°37'0 0.0
2015-Jan-28 06:34N 37°58' E 023°37'0 0.0
2015-Jan-28 05:34N 37°58' E 023°37'0 0.0
2015-Jan-28 04:34N 37°58' E 023°37'0 0.0
2015-Jan-28 03:34N 37°58' E 023°37'0 0.0
2015-Jan-28 02:34N 37°58' E 023°37'0 0.0
2015-Jan-28 01:33N 37°58' E 023°37'0 0.0
2015-Jan-28 00:34N 37°58' E 023°37'0 0.0
2015-Jan-27 23:34N 37°58' E 023°37'0 0.0
2015-Jan-27 22:34N 37°58' E 023°37'0 0.0
2015-Jan-27 21:34N 37°58' E 023°37'0 0.0
2015-Jan-27 20:34N 37°58' E 023°37'0 0.0
2015-Jan-27 19:33N 37°58' E 023°37'0 0.0
2015-Jan-27 18:33N 37°58' E 023°37'0 0.0
2015-Jan-27 17:34N 37°58' E 023°37'0 0.0
2015-Jan-27 16:34N 37°58' E 023°37'0 0.0
2015-Jan-27 15:34N 37°58' E 023°37'0 0.0
2015-Jan-27 14:33N 37°58' E 023°37'0 0.0
2015-Jan-27 13:34N 37°58' E 023°37'0 0.0
2015-Jan-27 12:34N 37°58' E 023°37'0 0.0
2015-Jan-27 11:34N 37°58' E 023°37'5 5.4
2015-Jan-27 10:34N 38°01' E 023°32'0 0.1
2015-Jan-27 09:34N 38°01' E 023°32'3 2.9
2015-Jan-27 08:33N 38°02' E 023°36'0 0.1
2015-Jan-27 07:34N 38°02' E 023°36'0 0.0
2015-Jan-27 06:34N 38°02' E 023°36'0 0.0
2015-Jan-27 05:34N 38°02' E 023°36'0 0.0
2015-Jan-27 04:33N 38°02' E 023°36'0 0.0
2015-Jan-27 03:34N 38°02' E 023°36'0 0.0
2015-Jan-27 02:34N 38°02' E 023°36'1 0.7
2015-Jan-27 01:34N 38°01' E 023°35'0 0.0
2015-Jan-27 00:34N 38°01' E 023°35'0 0.0
2015-Jan-26 23:34N 38°01' E 023°35'0 0.0
2015-Jan-26 22:34N 38°01' E 023°35'0 0.0
2015-Jan-26 21:34N 38°01' E 023°35'0 0.0
2015-Jan-26 20:33N 38°01' E 023°35'0 0.0
2015-Jan-26 19:34N 38°01' E 023°35'6 5.6
2015-Jan-26 18:34N 37°56' E 023°38'0 0.5
2015-Jan-26 17:34N 37°57' E 023°38'0 0.0
2015-Jan-26 16:33N 37°57' E 023°38'0 0.0
2015-Jan-26 15:34N 37°57' E 023°38'0 0.1
2015-Jan-26 14:34N 37°57' E 023°38'0 0.1
2015-Jan-26 13:34N 37°57' E 023°38'0 0.0
2015-Jan-26 12:33N 37°57' E 023°38'0 0.0
2015-Jan-26 11:34N 37°57' E 023°38'0 0.2
2015-Jan-26 10:34N 37°57' E 023°38'0 0.0
2015-Jan-26 09:33N 37°57' E 023°38'0 0.0
2015-Jan-26 08:33N 37°57' E 023°38'0 0.0
2015-Jan-26 07:33N 37°57' E 023°38'2 1.7
2015-Jan-26 06:33N 37°57' E 023°36'1 0.9
2015-Jan-26 05:34N 37°58' E 023°37'0 0.0
2015-Jan-26 04:34N 37°58' E 023°37'0 0.0
2015-Jan-26 03:33N 37°58' E 023°37'0 0.0
2015-Jan-26 02:33N 37°58' E 023°37'0 0.0
2015-Jan-26 01:33N 37°58' E 023°37'0 0.0
2015-Jan-26 00:33N 37°58' E 023°37'0 0.0
2015-Jan-25 23:33N 37°58' E 023°37'0 0.0
2015-Jan-25 22:34N 37°58' E 023°37'0 0.0
2015-Jan-25 21:33N 37°58' E 023°37'0 0.0
2015-Jan-25 20:33N 37°58' E 023°37'0 0.0
2015-Jan-25 19:33N 37°58' E 023°37'0 0.0
2015-Jan-25 18:31N 37°58' E 023°37'0 0.0
2015-Jan-25 17:33N 37°58' E 023°37'0 0.0
2015-Jan-25 16:32N 37°58' E 023°37'0 0.0
2015-Jan-25 14:07N 37°58' E 023°37'0 0.0
2015-Jan-25 13:33N 37°58' E 023°37'0 0.0
2015-Jan-25 02:04N 37°58' E 023°37'0 0.0
2015-Jan-25 01:33N 37°58' E 023°37'0 0.0
2015-Jan-25 00:33N 37°58' E 023°37'0 0.0
2015-Jan-24 23:33N 37°58' E 023°37'0 0.0
2015-Jan-24 22:33N 37°58' E 023°37'0 0.0
2015-Jan-24 21:33N 37°58' E 023°37'0 0.0
2015-Jan-24 20:33N 37°58' E 023°37'0 0.0
2015-Jan-24 19:34N 37°58' E 023°37'0 0.0
2015-Jan-24 18:34N 37°58' E 023°37'0 0.0
2015-Jan-24 17:33N 37°58' E 023°37'0 0.0
2015-Jan-24 16:33N 37°58' E 023°37'0 0.0
2015-Jan-24 15:33N 37°58' E 023°37'0 0.0
2015-Jan-24 14:33N 37°58' E 023°37'0 0.0
2015-Jan-24 13:33N 37°58' E 023°37'0 0.0
2015-Jan-24 12:33N 37°58' E 023°37'0 0.0
2015-Jan-24 11:34N 37°58' E 023°37'0 0.0
2015-Jan-24 10:33N 37°58' E 023°37'0 0.0
2015-Jan-24 09:33N 37°58' E 023°37'0 0.0
2015-Jan-24 08:34N 37°58' E 023°37'0 0.0
2015-Jan-24 07:33N 37°58' E 023°37'0 0.0
2015-Jan-24 06:33N 37°58' E 023°37'4 4.1
2015-Jan-24 05:34N 38°01' E 023°35'0 0.4
2015-Jan-24 04:34N 38°02' E 023°36'0 0.0
2015-Jan-24 03:33N 38°02' E 023°36'0 0.0
2015-Jan-24 02:33N 38°02' E 023°36'0 0.0
2015-Jan-24 01:33N 38°02' E 023°36'0 0.0
2015-Jan-24 00:34N 38°02' E 023°36'0 0.0
2015-Jan-23 23:34N 38°02' E 023°36'0 0.0
2015-Jan-23 22:33N 38°02' E 023°36'0 0.0
2015-Jan-23 21:33N 38°02' E 023°36'1 0.7
2015-Jan-23 20:33N 38°02' E 023°35'0 0.1
2015-Jan-23 19:33N 38°02' E 023°35'0 0.0
2015-Jan-23 18:34N 38°02' E 023°35'0 0.1
2015-Jan-23 17:34N 38°02' E 023°35'0 0.0
2015-Jan-23 16:33N 38°02' E 023°35'0 0.1
2015-Jan-23 15:33N 38°02' E 023°35'0 0.0
2015-Jan-23 14:33N 38°02' E 023°35'0 0.0
2015-Jan-23 13:34N 38°02' E 023°35'0 0.0
2015-Jan-23 12:33N 38°02' E 023°35'0 0.0
2015-Jan-23 11:33N 38°02' E 023°35'0 0.0
2015-Jan-23 10:33N 38°02' E 023°35'3 3.1
2015-Jan-23 09:34N 37°59' E 023°33'5 4.8
2015-Jan-23 08:33N 37°57' E 023°38'0 0.0
2015-Jan-23 07:33N 37°57' E 023°38'0 0.0
2015-Jan-23 06:33N 37°57' E 023°38'0 0.0
2015-Jan-23 05:34N 37°57' E 023°38'2 1.5
2015-Jan-23 04:33N 37°58' E 023°37'0 0.0
2015-Jan-23 03:33N 37°58' E 023°37'0 0.0
2015-Jan-23 02:33N 37°58' E 023°37'0 0.0
2015-Jan-23 01:33N 37°58' E 023°37'0 0.0
2015-Jan-23 00:33N 37°58' E 023°37'0 0.0
2015-Jan-22 23:33N 37°58' E 023°37'0 0.0
2015-Jan-22 22:33N 37°58' E 023°37'0 0.0
2015-Jan-22 21:33N 37°58' E 023°37'0 0.0
2015-Jan-22 20:34N 37°58' E 023°37'0 0.0
2015-Jan-22 19:33N 37°58' E 023°37'0 0.0
2015-Jan-22 18:34N 37°58' E 023°37'0 0.0
2015-Jan-22 17:33N 37°58' E 023°37'0 0.0
2015-Jan-22 16:33N 37°58' E 023°37'0 0.0
2015-Jan-22 15:33N 37°58' E 023°37'0 0.0
2015-Jan-22 14:34N 37°58' E 023°37'0 0.0
2015-Jan-22 13:33N 37°58' E 023°37'0 0.4
2015-Jan-22 12:33N 37°57' E 023°36'2 1.7
2015-Jan-22 11:33N 37°57' E 023°38'0 0.0
2015-Jan-22 10:33N 37°57' E 023°38'0 0.0
2015-Jan-22 09:33N 37°57' E 023°38'0 0.0
2015-Jan-22 08:34N 37°57' E 023°38'0 0.0
2015-Jan-22 07:33N 37°57' E 023°38'1 1.4
2015-Jan-22 06:33N 37°58' E 023°37'0 0.1
2015-Jan-22 05:34N 37°58' E 023°37'0 0.0
2015-Jan-22 04:33N 37°58' E 023°37'0 0.0
2015-Jan-22 03:34N 37°58' E 023°37'0 0.0
2015-Jan-22 02:33N 37°58' E 023°37'0 0.0
2015-Jan-22 01:33N 37°58' E 023°37'0 0.0
2015-Jan-22 00:33N 37°58' E 023°37'0 0.0
2015-Jan-21 23:33N 37°58' E 023°37'0 0.0
2015-Jan-21 22:50N 37°58' E 023°37'0 0.0
2015-Jan-21 22:46N 37°58' E 023°37'0 0.0
2015-Jan-21 22:33N 37°58' E 023°37'0 0.0
2015-Jan-21 21:33N 37°58' E 023°37'0 0.0
2015-Jan-21 20:33N 37°58' E 023°37'0 0.0
2015-Jan-21 19:33N 37°58' E 023°37'0 0.0
2015-Jan-21 18:33N 37°58' E 023°37'0 0.0
2015-Jan-21 17:34N 37°58' E 023°37'0 0.0
2015-Jan-21 16:33N 37°58' E 023°37'0 0.0
2015-Jan-21 15:34N 37°58' E 023°37'0 0.0
2015-Jan-21 14:33N 37°58' E 023°37'0 0.3
2015-Jan-21 13:33N 37°57' E 023°36'6 6.5
2015-Jan-21 12:33N 38°02' E 023°31'0 0.0
2015-Jan-21 11:33N 38°02' E 023°31'0 0.0
2015-Jan-21 10:33N 38°02' E 023°31'0 0.0
2015-Jan-21 09:33N 38°02' E 023°31'0 0.0
2015-Jan-21 08:33N 38°02' E 023°31'0 0.0
2015-Jan-21 07:33N 38°02' E 023°31'0 0.0
2015-Jan-21 06:33N 38°02' E 023°31'1 0.6
2015-Jan-21 05:33N 38°02' E 023°31'4 4.2
2015-Jan-21 04:33N 37°58' E 023°33'3 3.0
2015-Jan-21 03:33N 37°58' E 023°37'0 0.0
2015-Jan-21 02:33N 37°58' E 023°37'0 0.0
2015-Jan-21 01:33N 37°58' E 023°37'0 0.0
2015-Jan-21 00:33N 37°58' E 023°37'0 0.0
2015-Jan-20 23:33N 37°58' E 023°37'0 0.0
2015-Jan-20 22:33N 37°58' E 023°37'0 0.0
2015-Jan-20 21:34N 37°58' E 023°37'0 0.0
2015-Jan-20 20:34N 37°58' E 023°37'0 0.0
2015-Jan-20 19:34N 37°58' E 023°37'0 0.0
2015-Jan-20 18:33N 37°58' E 023°37'0 0.0
2015-Jan-20 17:33N 37°58' E 023°37'0 0.0
2015-Jan-20 16:34N 37°58' E 023°37'0 0.0
2015-Jan-20 15:33N 37°58' E 023°37'0 0.0
2015-Jan-20 14:34N 37°58' E 023°37'6 6.0
2015-Jan-20 13:34N 38°02' E 023°31'0 0.0
2015-Jan-20 12:33N 38°02' E 023°31'0 0.0
2015-Jan-20 11:33N 38°02' E 023°31'0 0.0
2015-Jan-20 10:33N 38°02' E 023°31'0 0.0
2015-Jan-20 09:33N 38°02' E 023°31'0 0.1
2015-Jan-20 08:33N 38°02' E 023°31'0 0.0
2015-Jan-20 07:33N 38°02' E 023°31'6 5.9
2015-Jan-20 06:33N 37°58' E 023°37'0 0.0
2015-Jan-20 05:33N 37°58' E 023°37'0 0.0
2015-Jan-20 04:33N 37°58' E 023°37'0 0.0
2015-Jan-20 03:33N 37°58' E 023°37'0 0.0
2015-Jan-20 02:34N 37°58' E 023°37'0 0.0
2015-Jan-20 01:33N 37°58' E 023°37'0 0.0
2015-Jan-20 00:33N 37°58' E 023°37'0 0.0
2015-Jan-19 23:33N 37°58' E 023°37'0 0.0
2015-Jan-19 22:33N 37°58' E 023°37'0 0.0
2015-Jan-19 21:33N 37°58' E 023°37'0 0.0
2015-Jan-19 20:33N 37°58' E 023°37'0 0.0
2015-Jan-19 19:33N 37°58' E 023°37'0 0.0
2015-Jan-19 18:33N 37°58' E 023°37'0 0.0
2015-Jan-19 17:33N 37°58' E 023°37'0 0.0
2015-Jan-19 16:33N 37°58' E 023°37'0 0.0
2015-Jan-19 15:33N 37°58' E 023°37'0 0.0
2015-Jan-19 14:33N 37°58' E 023°37'0 0.0
2015-Jan-19 13:34N 37°58' E 023°37'0 0.0
2015-Jan-19 12:33N 37°58' E 023°37'0 0.0
2015-Jan-19 11:33N 37°58' E 023°37'1 1.0
2015-Jan-19 10:33N 37°57' E 023°36'2 1.6
2015-Jan-19 09:34N 37°57' E 023°38'0 0.0
2015-Jan-19 08:33N 37°57' E 023°38'0 0.0
2015-Jan-19 07:33N 37°57' E 023°38'2 1.9
2015-Jan-19 06:32N 37°57' E 023°36'  
Track history (hours):
 
Tides and Currents Weather Stations Pressure Air Temp Water Temp Dewpoint Dewpoint Depression Visibility Wind Speed Wind Dir Waves Ship Positions

Mandoudi

Last reported at 2015-Jan-28 23:33 UTC. Time now 2015-Jan-29 00:15 UTC.
Position N 37°58' E 023°37'.

Length 60 m; draft 4.6 m.

Type: Ship (hazmat cat A). MMSI: 237470200.

Date/timePositionNaut miles runAvg speedWind from/ knotsBaromVisibWave heightAir tempDewpointWater temp
2015-Jan-28 23:33N 37°58' E 023°37'0 0.0
2015-Jan-28 22:34N 37°58' E 023°37'0 0.0
2015-Jan-28 21:34N 37°58' E 023°37'0 0.0
2015-Jan-28 20:33N 37°58' E 023°37'0 0.0
2015-Jan-28 19:34N 37°58' E 023°37'0 0.0
2015-Jan-28 18:34N 37°58' E 023°37'1 0.8
2015-Jan-28 17:34N 37°57' E 023°36'2 1.8
2015-Jan-28 16:33N 37°57' E 023°38'0 0.0
2015-Jan-28 15:34N 37°57' E 023°38'0 0.0
2015-Jan-28 14:34N 37°57' E 023°38'0 0.0
2015-Jan-28 13:34N 37°57' E 023°38'1 1.4
2015-Jan-28 12:33N 37°58' E 023°37'0 0.0
2015-Jan-28 11:34N 37°58' E 023°37'0 0.0
2015-Jan-28 10:33N 37°58' E 023°37'0 0.0
2015-Jan-28 09:33N 37°58' E 023°37'0 0.0
2015-Jan-28 08:34N 37°58' E 023°37'0 0.0
2015-Jan-28 07:34N 37°58' E 023°37'0 0.0
2015-Jan-28 06:34N 37°58' E 023°37'0 0.0
2015-Jan-28 05:34N 37°58' E 023°37'0 0.0
2015-Jan-28 04:34N 37°58' E 023°37'0 0.0
2015-Jan-28 03:34N 37°58' E 023°37'0 0.0
2015-Jan-28 02:34N 37°58' E 023°37'0 0.0
2015-Jan-28 01:33N 37°58' E 023°37'0 0.0
2015-Jan-28 00:34N 37°58' E 023°37'0 0.0
2015-Jan-27 23:34N 37°58' E 023°37'0 0.0
2015-Jan-27 22:34N 37°58' E 023°37'0 0.0
2015-Jan-27 21:34N 37°58' E 023°37'0 0.0
2015-Jan-27 20:34N 37°58' E 023°37'0 0.0
2015-Jan-27 19:33N 37°58' E 023°37'0 0.0
2015-Jan-27 18:33N 37°58' E 023°37'0 0.0
2015-Jan-27 17:34N 37°58' E 023°37'0 0.0
2015-Jan-27 16:34N 37°58' E 023°37'0 0.0
2015-Jan-27 15:34N 37°58' E 023°37'0 0.0
2015-Jan-27 14:33N 37°58' E 023°37'0 0.0
2015-Jan-27 13:34N 37°58' E 023°37'0 0.0
2015-Jan-27 12:34N 37°58' E 023°37'0 0.0
2015-Jan-27 11:34N 37°58' E 023°37'5 5.4
2015-Jan-27 10:34N 38°01' E 023°32'0 0.1
2015-Jan-27 09:34N 38°01' E 023°32'3 2.9
2015-Jan-27 08:33N 38°02' E 023°36'0 0.1
2015-Jan-27 07:34N 38°02' E 023°36'0 0.0
2015-Jan-27 06:34N 38°02' E 023°36'0 0.0
2015-Jan-27 05:34N 38°02' E 023°36'0 0.0
2015-Jan-27 04:33N 38°02' E 023°36'0 0.0
2015-Jan-27 03:34N 38°02' E 023°36'0 0.0
2015-Jan-27 02:34N 38°02' E 023°36'1 0.7
2015-Jan-27 01:34N 38°01' E 023°35'0 0.0
2015-Jan-27 00:34N 38°01' E 023°35'0 0.0
2015-Jan-26 23:34N 38°01' E 023°35'0 0.0
2015-Jan-26 22:34N 38°01' E 023°35'0 0.0
2015-Jan-26 21:34N 38°01' E 023°35'0 0.0
2015-Jan-26 20:33N 38°01' E 023°35'0 0.0
2015-Jan-26 19:34N 38°01' E 023°35'6 5.6
2015-Jan-26 18:34N 37°56' E 023°38'0 0.5
2015-Jan-26 17:34N 37°57' E 023°38'0 0.0
2015-Jan-26 16:33N 37°57' E 023°38'0 0.0
2015-Jan-26 15:34N 37°57' E 023°38'0 0.1
2015-Jan-26 14:34N 37°57' E 023°38'0 0.1
2015-Jan-26 13:34N 37°57' E 023°38'0 0.0
2015-Jan-26 12:33N 37°57' E 023°38'0 0.0
2015-Jan-26 11:34N 37°57' E 023°38'0 0.2
2015-Jan-26 10:34N 37°57' E 023°38'0 0.0
2015-Jan-26 09:33N 37°57' E 023°38'0 0.0
2015-Jan-26 08:33N 37°57' E 023°38'0 0.0
2015-Jan-26 07:33N 37°57' E 023°38'2 1.7
2015-Jan-26 06:33N 37°57' E 023°36'1 0.9
2015-Jan-26 05:34N 37°58' E 023°37'0 0.0
2015-Jan-26 04:34N 37°58' E 023°37'0 0.0
2015-Jan-26 03:33N 37°58' E 023°37'0 0.0
2015-Jan-26 02:33N 37°58' E 023°37'0 0.0
2015-Jan-26 01:33N 37°58' E 023°37'0 0.0
2015-Jan-26 00:33N 37°58' E 023°37'0 0.0
2015-Jan-25 23:33N 37°58' E 023°37'0 0.0
2015-Jan-25 22:34N 37°58' E 023°37'0 0.0
2015-Jan-25 21:33N 37°58' E 023°37'0 0.0
2015-Jan-25 20:33N 37°58' E 023°37'0 0.0
2015-Jan-25 19:33N 37°58' E 023°37'0 0.0
2015-Jan-25 18:31N 37°58' E 023°37'0 0.0
2015-Jan-25 17:33N 37°58' E 023°37'0 0.0
2015-Jan-25 16:32N 37°58' E 023°37'0 0.0
2015-Jan-25 14:07N 37°58' E 023°37'0 0.0
2015-Jan-25 13:33N 37°58' E 023°37'0 0.0
2015-Jan-25 02:04N 37°58' E 023°37'0 0.0
2015-Jan-25 01:33N 37°58' E 023°37'0 0.0
2015-Jan-25 00:33N 37°58' E 023°37'0 0.0
2015-Jan-24 23:33N 37°58' E 023°37'0 0.0
2015-Jan-24 22:33N 37°58' E 023°37'0 0.0
2015-Jan-24 21:33N 37°58' E 023°37'0 0.0
2015-Jan-24 20:33N 37°58' E 023°37'0 0.0
2015-Jan-24 19:34N 37°58' E 023°37'0 0.0
2015-Jan-24 18:34N 37°58' E 023°37'0 0.0
2015-Jan-24 17:33N 37°58' E 023°37'0 0.0
2015-Jan-24 16:33N 37°58' E 023°37'0 0.0
2015-Jan-24 15:33N 37°58' E 023°37'0 0.0
2015-Jan-24 14:33N 37°58' E 023°37'0 0.0
2015-Jan-24 13:33N 37°58' E 023°37'0 0.0
2015-Jan-24 12:33N 37°58' E 023°37'0 0.0
2015-Jan-24 11:34N 37°58' E 023°37'0 0.0
2015-Jan-24 10:33N 37°58' E 023°37'0 0.0
2015-Jan-24 09:33N 37°58' E 023°37'0 0.0
2015-Jan-24 08:34N 37°58' E 023°37'0 0.0
2015-Jan-24 07:33N 37°58' E 023°37'0 0.0
2015-Jan-24 06:33N 37°58' E 023°37'4 4.1
2015-Jan-24 05:34N 38°01' E 023°35'0 0.4
2015-Jan-24 04:34N 38°02' E 023°36'0 0.0
2015-Jan-24 03:33N 38°02' E 023°36'0 0.0
2015-Jan-24 02:33N 38°02' E 023°36'0 0.0
2015-Jan-24 01:33N 38°02' E 023°36'0 0.0
2015-Jan-24 00:34N 38°02' E 023°36'0 0.0
2015-Jan-23 23:34N 38°02' E 023°36'0 0.0
2015-Jan-23 22:33N 38°02' E 023°36'0 0.0
2015-Jan-23 21:33N 38°02' E 023°36'1 0.7
2015-Jan-23 20:33N 38°02' E 023°35'0 0.1
2015-Jan-23 19:33N 38°02' E 023°35'0 0.0
2015-Jan-23 18:34N 38°02' E 023°35'0 0.1
2015-Jan-23 17:34N 38°02' E 023°35'0 0.0
2015-Jan-23 16:33N 38°02' E 023°35'0 0.1
2015-Jan-23 15:33N 38°02' E 023°35'0 0.0
2015-Jan-23 14:33N 38°02' E 023°35'0 0.0
2015-Jan-23 13:34N 38°02' E 023°35'0 0.0
2015-Jan-23 12:33N 38°02' E 023°35'0 0.0
2015-Jan-23 11:33N 38°02' E 023°35'0 0.0
2015-Jan-23 10:33N 38°02' E 023°35'3 3.1
2015-Jan-23 09:34N 37°59' E 023°33'5 4.8
2015-Jan-23 08:33N 37°57' E 023°38'0 0.0
2015-Jan-23 07:33N 37°57' E 023°38'0 0.0
2015-Jan-23 06:33N 37°57' E 023°38'0 0.0
2015-Jan-23 05:34N 37°57' E 023°38'2 1.5
2015-Jan-23 04:33N 37°58' E 023°37'0 0.0
2015-Jan-23 03:33N 37°58' E 023°37'0 0.0
2015-Jan-23 02:33N 37°58' E 023°37'0 0.0
2015-Jan-23 01:33N 37°58' E 023°37'0 0.0
2015-Jan-23 00:33N 37°58' E 023°37'0 0.0
2015-Jan-22 23:33N 37°58' E 023°37'0 0.0
2015-Jan-22 22:33N 37°58' E 023°37'0 0.0
2015-Jan-22 21:33N 37°58' E 023°37'0 0.0
2015-Jan-22 20:34N 37°58' E 023°37'0 0.0
2015-Jan-22 19:33N 37°58' E 023°37'0 0.0
2015-Jan-22 18:34N 37°58' E 023°37'0 0.0
2015-Jan-22 17:33N 37°58' E 023°37'0 0.0
2015-Jan-22 16:33N 37°58' E 023°37'0 0.0
2015-Jan-22 15:33N 37°58' E 023°37'0 0.0
2015-Jan-22 14:34N 37°58' E 023°37'0 0.0
2015-Jan-22 13:33N 37°58' E 023°37'0 0.4
2015-Jan-22 12:33N 37°57' E 023°36'2 1.7
2015-Jan-22 11:33N 37°57' E 023°38'0 0.0
2015-Jan-22 10:33N 37°57' E 023°38'0 0.0
2015-Jan-22 09:33N 37°57' E 023°38'0 0.0
2015-Jan-22 08:34N 37°57' E 023°38'0 0.0
2015-Jan-22 07:33N 37°57' E 023°38'1 1.4
2015-Jan-22 06:33N 37°58' E 023°37'0 0.1
2015-Jan-22 05:34N 37°58' E 023°37'0 0.0
2015-Jan-22 04:33N 37°58' E 023°37'0 0.0
2015-Jan-22 03:34N 37°58' E 023°37'0 0.0
2015-Jan-22 02:33N 37°58' E 023°37'0 0.0
2015-Jan-22 01:33N 37°58' E 023°37'0 0.0
2015-Jan-22 00:33N 37°58' E 023°37'0 0.0
2015-Jan-21 23:33N 37°58' E 023°37'0 0.0
2015-Jan-21 22:50N 37°58' E 023°37'0 0.0
2015-Jan-21 22:46N 37°58' E 023°37'0 0.0
2015-Jan-21 22:33N 37°58' E 023°37'0 0.0
2015-Jan-21 21:33N 37°58' E 023°37'0 0.0
2015-Jan-21 20:33N 37°58' E 023°37'0 0.0
2015-Jan-21 19:33N 37°58' E 023°37'0 0.0
2015-Jan-21 18:33N 37°58' E 023°37'0 0.0
2015-Jan-21 17:34N 37°58' E 023°37'0 0.0
2015-Jan-21 16:33N 37°58' E 023°37'0 0.0
2015-Jan-21 15:34N 37°58' E 023°37'0 0.0
2015-Jan-21 14:33N 37°58' E 023°37'0 0.3
2015-Jan-21 13:33N 37°57' E 023°36'6 6.5
2015-Jan-21 12:33N 38°02' E 023°31'0 0.0
2015-Jan-21 11:33N 38°02' E 023°31'0 0.0
2015-Jan-21 10:33N 38°02' E 023°31'0 0.0
2015-Jan-21 09:33N 38°02' E 023°31'0 0.0
2015-Jan-21 08:33N 38°02' E 023°31'0 0.0
2015-Jan-21 07:33N 38°02' E 023°31'0 0.0
2015-Jan-21 06:33N 38°02' E 023°31'1 0.6
2015-Jan-21 05:33N 38°02' E 023°31'4 4.2
2015-Jan-21 04:33N 37°58' E 023°33'3 3.0
2015-Jan-21 03:33N 37°58' E 023°37'0 0.0
2015-Jan-21 02:33N 37°58' E 023°37'0 0.0
2015-Jan-21 01:33N 37°58' E 023°37'0 0.0
2015-Jan-21 00:33N 37°58' E 023°37'0 0.0
2015-Jan-20 23:33N 37°58' E 023°37'0 0.0
2015-Jan-20 22:33N 37°58' E 023°37'0 0.0
2015-Jan-20 21:34N 37°58' E 023°37'0 0.0
2015-Jan-20 20:34N 37°58' E 023°37'0 0.0
2015-Jan-20 19:34N 37°58' E 023°37'0 0.0
2015-Jan-20 18:33N 37°58' E 023°37'0 0.0
2015-Jan-20 17:33N 37°58' E 023°37'0 0.0
2015-Jan-20 16:34N 37°58' E 023°37'0 0.0
2015-Jan-20 15:33N 37°58' E 023°37'0 0.0
2015-Jan-20 14:34N 37°58' E 023°37'6 6.0
2015-Jan-20 13:34N 38°02' E 023°31'0 0.0
2015-Jan-20 12:33N 38°02' E 023°31'0 0.0
2015-Jan-20 11:33N 38°02' E 023°31'0 0.0
2015-Jan-20 10:33N 38°02' E 023°31'0 0.0
2015-Jan-20 09:33N 38°02' E 023°31'0 0.1
2015-Jan-20 08:33N 38°02' E 023°31'0 0.0
2015-Jan-20 07:33N 38°02' E 023°31'6 5.9
2015-Jan-20 06:33N 37°58' E 023°37'0 0.0
2015-Jan-20 05:33N 37°58' E 023°37'0 0.0
2015-Jan-20 04:33N 37°58' E 023°37'0 0.0
2015-Jan-20 03:33N 37°58' E 023°37'0 0.0
2015-Jan-20 02:34N 37°58' E 023°37'0 0.0
2015-Jan-20 01:33N 37°58' E 023°37'0 0.0
2015-Jan-20 00:33N 37°58' E 023°37'0 0.0
2015-Jan-19 23:33N 37°58' E 023°37'0 0.0
2015-Jan-19 22:33N 37°58' E 023°37'0 0.0
2015-Jan-19 21:33N 37°58' E 023°37'0 0.0
2015-Jan-19 20:33N 37°58' E 023°37'0 0.0
2015-Jan-19 19:33N 37°58' E 023°37'0 0.0
2015-Jan-19 18:33N 37°58' E 023°37'0 0.0
2015-Jan-19 17:33N 37°58' E 023°37'0 0.0
2015-Jan-19 16:33N 37°58' E 023°37'0 0.0
2015-Jan-19 15:33N 37°58' E 023°37'0 0.0
2015-Jan-19 14:33N 37°58' E 023°37'0 0.0
2015-Jan-19 13:34N 37°58' E 023°37'0 0.0
2015-Jan-19 12:33N 37°58' E 023°37'0 0.0
2015-Jan-19 11:33N 37°58' E 023°37'1 1.0
2015-Jan-19 10:33N 37°57' E 023°36'2 1.6
2015-Jan-19 09:34N 37°57' E 023°38'0 0.0
2015-Jan-19 08:33N 37°57' E 023°38'0 0.0
2015-Jan-19 07:33N 37°57' E 023°38'2 1.9
2015-Jan-19 06:32N 37°57' E 023°36'  

Dump ship's entire track history